sensor_id;sensor_type;location;lat;lon;timestamp;temperature;humidity
41481;DHT22;27217;51.220;5.308;2023-04-01T00:00:02;9.70;99.90
41481;DHT22;27217;51.220;5.308;2023-04-01T00:03:07;9.60;99.90
41481;DHT22;27217;51.220;5.308;2023-04-01T00:06:15;9.50;99.90
41481;DHT22;27217;51.220;5.308;2023-04-01T00:09:19;9.50;99.90
41481;DHT22;27217;51.220;5.308;2023-04-01T00:12:25;9.50;99.90
41481;DHT22;27217;51.220;5.308;2023-04-01T00:15:31;9.50;99.90
41481;DHT22;27217;51.220;5.308;2023-04-01T00:18:36;9.60;99.90
41481;DHT22;27217;51.220;5.308;2023-04-01T00:21:42;9.60;99.90
41481;DHT22;27217;51.220;5.308;2023-04-01T00:24:47;9.60;99.90
41481;DHT22;27217;51.220;5.308;2023-04-01T00:27:53;9.60;99.90
41481;DHT22;27217;51.220;5.308;2023-04-01T00:31:03;9.60;99.90
41481;DHT22;27217;51.220;5.308;2023-04-01T00:34:05;9.40;99.90
41481;DHT22;27217;51.220;5.308;2023-04-01T00:37:11;9.50;99.90
41481;DHT22;27217;51.220;5.308;2023-04-01T00:40:41;9.60;99.90
41481;DHT22;27217;51.220;5.308;2023-04-01T00:43:26;9.50;99.90
41481;DHT22;27217;51.220;5.308;2023-04-01T00:46:31;9.60;99.90
41481;DHT22;27217;51.220;5.308;2023-04-01T00:49:40;9.50;99.90
41481;DHT22;27217;51.220;5.308;2023-04-01T00:52:46;9.50;99.90
41481;DHT22;27217;51.220;5.308;2023-04-01T00:56:02;9.40;99.90
41481;DHT22;27217;51.220;5.308;2023-04-01T00:59:14;9.40;99.90
41481;DHT22;27217;51.220;5.308;2023-04-01T01:02:15;9.50;99.90
41481;DHT22;27217;51.220;5.308;2023-04-01T01:05:23;9.40;99.90
41481;DHT22;27217;51.220;5.308;2023-04-01T01:11:25;9.50;99.90
41481;DHT22;27217;51.220;5.308;2023-04-01T01:14:10;9.50;99.90
41481;DHT22;27217;51.220;5.308;2023-04-01T01:32:43;9.70;99.90
41481;DHT22;27217;51.220;5.308;2023-04-01T01:35:28;9.70;99.90
41481;DHT22;27217;51.220;5.308;2023-04-01T01:38:33;9.60;99.90
41481;DHT22;27217;51.220;5.308;2023-04-01T01:41:39;9.60;99.90
41481;DHT22;27217;51.220;5.308;2023-04-01T01:44:44;9.50;99.90
41481;DHT22;27217;51.220;5.308;2023-04-01T01:47:50;9.50;99.90
41481;DHT22;27217;51.220;5.308;2023-04-01T01:50:55;9.50;99.90
41481;DHT22;27217;51.220;5.308;2023-04-01T01:54:01;9.60;99.90
41481;DHT22;27217;51.220;5.308;2023-04-01T01:57:08;9.70;99.90
41481;DHT22;27217;51.220;5.308;2023-04-01T02:00:13;9.60;99.90
41481;DHT22;27217;51.220;5.308;2023-04-01T02:03:19;9.50;99.90
41481;DHT22;27217;51.220;5.308;2023-04-01T02:06:26;9.60;99.90
41481;DHT22;27217;51.220;5.308;2023-04-01T02:09:30;9.50;99.90
41481;DHT22;27217;51.220;5.308;2023-04-01T02:12:37;9.60;99.90
41481;DHT22;27217;51.220;5.308;2023-04-01T02:15:44;9.50;99.90
41481;DHT22;27217;51.220;5.308;2023-04-01T02:18:50;9.60;99.90
41481;DHT22;27217;51.220;5.308;2023-04-01T02:21:56;9.60;99.90
41481;DHT22;27217;51.220;5.308;2023-04-01T02:25:03;9.50;99.90
41481;DHT22;27217;51.220;5.308;2023-04-01T02:28:06;9.50;99.90
41481;DHT22;27217;51.220;5.308;2023-04-01T02:31:12;9.50;99.90
41481;DHT22;27217;51.220;5.308;2023-04-01T02:34:18;9.50;99.90
41481;DHT22;27217;51.220;5.308;2023-04-01T02:37:23;9.50;99.90
41481;DHT22;27217;51.220;5.308;2023-04-01T02:40:29;9.60;99.90
41481;DHT22;27217;51.220;5.308;2023-04-01T02:43:34;9.60;99.90
41481;DHT22;27217;51.220;5.308;2023-04-01T02:46:42;9.60;99.90
41481;DHT22;27217;51.220;5.308;2023-04-01T02:49:48;9.60;99.90
41481;DHT22;27217;51.220;5.308;2023-04-01T02:52:54;9.70;99.90
41481;DHT22;27217;51.220;5.308;2023-04-01T02:56:00;9.50;99.90
41481;DHT22;27217;51.220;5.308;2023-04-01T02:59:06;9.40;99.90
41481;DHT22;27217;51.220;5.308;2023-04-01T03:02:15;9.40;99.90
41481;DHT22;27217;51.220;5.308;2023-04-01T03:05:21;9.40;99.90
41481;DHT22;27217;51.220;5.308;2023-04-01T03:08:27;9.40;99.90
41481;DHT22;27217;51.220;5.308;2023-04-01T03:11:32;9.50;99.90
41481;DHT22;27217;51.220;5.308;2023-04-01T03:14:38;9.50;99.90
41481;DHT22;27217;51.220;5.308;2023-04-01T03:17:44;9.50;99.90
41481;DHT22;27217;51.220;5.308;2023-04-01T03:20:50;9.50;99.90
41481;DHT22;27217;51.220;5.308;2023-04-01T03:23:56;9.50;99.90
41481;DHT22;27217;51.220;5.308;2023-04-01T03:27:02;9.40;99.90
41481;DHT22;27217;51.220;5.308;2023-04-01T03:30:08;9.20;99.90
41481;DHT22;27217;51.220;5.308;2023-04-01T03:33:16;9.40;99.90
41481;DHT22;27217;51.220;5.308;2023-04-01T03:36:22;9.30;99.90
41481;DHT22;27217;51.220;5.308;2023-04-01T03:39:27;9.40;99.90
41481;DHT22;27217;51.220;5.308;2023-04-01T03:42:33;9.30;99.90
41481;DHT22;27217;51.220;5.308;2023-04-01T03:45:45;9.30;99.90
41481;DHT22;27217;51.220;5.308;2023-04-01T03:48:50;9.30;99.90
41481;DHT22;27217;51.220;5.308;2023-04-01T03:51:59;9.30;99.90
41481;DHT22;27217;51.220;5.308;2023-04-01T03:55:06;9.30;99.90
41481;DHT22;27217;51.220;5.308;2023-04-01T03:58:11;9.30;99.90
41481;DHT22;27217;51.220;5.308;2023-04-01T04:01:19;9.30;99.90
41481;DHT22;27217;51.220;5.308;2023-04-01T04:04:22;9.30;99.90
41481;DHT22;27217;51.220;5.308;2023-04-01T04:07:28;9.40;99.90
41481;DHT22;27217;51.220;5.308;2023-04-01T04:10:34;9.30;99.90
41481;DHT22;27217;51.220;5.308;2023-04-01T04:13:40;9.30;99.90
41481;DHT22;27217;51.220;5.308;2023-04-01T04:16:45;9.20;99.90
41481;DHT22;27217;51.220;5.308;2023-04-01T04:19:51;9.20;99.90
41481;DHT22;27217;51.220;5.308;2023-04-01T04:22:56;9.30;99.90
41481;DHT22;27217;51.220;5.308;2023-04-01T04:26:06;9.20;99.90
41481;DHT22;27217;51.220;5.308;2023-04-01T04:29:08;9.40;99.90
41481;DHT22;27217;51.220;5.308;2023-04-01T04:32:13;9.20;99.90
41481;DHT22;27217;51.220;5.308;2023-04-01T04:35:21;9.20;99.90
41481;DHT22;27217;51.220;5.308;2023-04-01T04:38:24;9.10;99.90
41481;DHT22;27217;51.220;5.308;2023-04-01T04:41:30;9.20;99.90
41481;DHT22;27217;51.220;5.308;2023-04-01T04:44:38;9.20;99.90
41481;DHT22;27217;51.220;5.308;2023-04-01T04:47:44;9.30;99.90
41481;DHT22;27217;51.220;5.308;2023-04-01T04:50:55;9.30;99.90
41481;DHT22;27217;51.220;5.308;2023-04-01T04:53:59;9.20;99.90
41481;DHT22;27217;51.220;5.308;2023-04-01T04:57:06;9.30;99.90
41481;DHT22;27217;51.220;5.308;2023-04-01T05:00:12;9.30;99.90
41481;DHT22;27217;51.220;5.308;2023-04-01T05:03:17;9.40;99.90
41481;DHT22;27217;51.220;5.308;2023-04-01T05:06:23;9.20;99.90
41481;DHT22;27217;51.220;5.308;2023-04-01T05:09:30;9.20;99.90
41481;DHT22;27217;51.220;5.308;2023-04-01T05:12:35;9.20;99.90
41481;DHT22;27217;51.220;5.308;2023-04-01T05:15:41;9.10;99.90
41481;DHT22;27217;51.220;5.308;2023-04-01T05:18:47;9.10;99.90
41481;DHT22;27217;51.220;5.308;2023-04-01T05:21:52;9.10;99.90
41481;DHT22;27217;51.220;5.308;2023-04-01T05:24:57;9.10;99.90
41481;DHT22;27217;51.220;5.308;2023-04-01T05:28:03;9.20;99.90
41481;DHT22;27217;51.220;5.308;2023-04-01T05:31:09;9.20;99.90
41481;DHT22;27217;51.220;5.308;2023-04-01T05:34:14;9.10;99.90
41481;DHT22;27217;51.220;5.308;2023-04-01T05:37:19;9.20;99.90
41481;DHT22;27217;51.220;5.308;2023-04-01T05:40:25;9.30;99.90
41481;DHT22;27217;51.220;5.308;2023-04-01T05:43:31;9.20;99.90
41481;DHT22;27217;51.220;5.308;2023-04-01T05:46:37;9.10;99.90
41481;DHT22;27217;51.220;5.308;2023-04-01T05:49:43;9.20;99.90
41481;DHT22;27217;51.220;5.308;2023-04-01T05:52:50;9.20;99.90
41481;DHT22;27217;51.220;5.308;2023-04-01T05:55:56;9.10;99.90
41481;DHT22;27217;51.220;5.308;2023-04-01T05:59:01;9.10;99.90
41481;DHT22;27217;51.220;5.308;2023-04-01T06:02:08;9.10;99.90
41481;DHT22;27217;51.220;5.308;2023-04-01T06:05:22;9.10;99.90
41481;DHT22;27217;51.220;5.308;2023-04-01T06:08:18;9.10;99.90
41481;DHT22;27217;51.220;5.308;2023-04-01T06:19:50;9.00;99.90
41481;DHT22;27217;51.220;5.308;2023-04-01T06:25:50;9.00;99.90
41481;DHT22;27217;51.220;5.308;2023-04-01T06:31:25;8.90;99.90
41481;DHT22;27217;51.220;5.308;2023-04-01T06:56:10;9.20;99.90
41481;DHT22;27217;51.220;5.308;2023-04-01T07:01:42;9.10;99.90
41481;DHT22;27217;51.220;5.308;2023-04-01T07:04:29;9.10;99.90
41481;DHT22;27217;51.220;5.308;2023-04-01T07:07:37;9.10;99.90
41481;DHT22;27217;51.220;5.308;2023-04-01T07:10:51;9.10;99.90
41481;DHT22;27217;51.220;5.308;2023-04-01T07:17:12;9.00;99.90
41481;DHT22;27217;51.220;5.308;2023-04-01T07:20:17;8.90;99.90
41481;DHT22;27217;51.220;5.308;2023-04-01T07:23:23;9.00;99.90
41481;DHT22;27217;51.220;5.308;2023-04-01T07:26:27;9.00;99.90
41481;DHT22;27217;51.220;5.308;2023-04-01T07:29:33;9.10;99.90
41481;DHT22;27217;51.220;5.308;2023-04-01T07:35:03;9.10;99.90
41481;DHT22;27217;51.220;5.308;2023-04-01T07:46:22;9.30;99.90
41481;DHT22;27217;51.220;5.308;2023-04-01T07:49:06;9.40;99.90
41481;DHT22;27217;51.220;5.308;2023-04-01T07:52:16;9.40;99.90
41481;DHT22;27217;51.220;5.308;2023-04-01T07:55:20;9.30;99.90
41481;DHT22;27217;51.220;5.308;2023-04-01T07:58:31;9.40;99.90
41481;DHT22;27217;51.220;5.308;2023-04-01T08:13:12;9.30;99.90
41481;DHT22;27217;51.220;5.308;2023-04-01T08:22:17;9.60;99.90
41481;DHT22;27217;51.220;5.308;2023-04-01T08:25:24;9.70;99.90
41481;DHT22;27217;51.220;5.308;2023-04-01T08:28:54;9.50;99.90
41481;DHT22;27217;51.220;5.308;2023-04-01T08:32:00;9.60;99.90
41481;DHT22;27217;51.220;5.308;2023-04-01T08:35:11;9.60;99.90
41481;DHT22;27217;51.220;5.308;2023-04-01T08:38:16;9.70;99.90
41481;DHT22;27217;51.220;5.308;2023-04-01T08:44:34;9.60;99.90
41481;DHT22;27217;51.220;5.308;2023-04-01T08:50:23;9.50;99.90
41481;DHT22;27217;51.220;5.308;2023-04-01T09:02:05;9.60;99.90
41481;DHT22;27217;51.220;5.308;2023-04-01T09:10:55;9.70;99.90
41481;DHT22;27217;51.220;5.308;2023-04-01T09:17:29;9.90;99.90
41481;DHT22;27217;51.220;5.308;2023-04-01T09:19:51;9.60;99.90
41481;DHT22;27217;51.220;5.308;2023-04-01T09:22:37;9.70;99.90
41481;DHT22;27217;51.220;5.308;2023-04-01T09:29:18;9.90;99.90
41481;DHT22;27217;51.220;5.308;2023-04-01T09:46:23;9.70;99.90
41481;DHT22;27217;51.220;5.308;2023-04-01T10:08:39;9.70;99.90
41481;DHT22;27217;51.220;5.308;2023-04-01T10:17:10;9.90;99.90
41481;DHT22;27217;51.220;5.308;2023-04-01T10:28:25;10.00;99.90
41481;DHT22;27217;51.220;5.308;2023-04-01T10:34:59;10.10;99.90
41481;DHT22;27217;51.220;5.308;2023-04-01T10:37:40;10.00;99.90
41481;DHT22;27217;51.220;5.308;2023-04-01T10:43:19;10.20;99.90
41481;DHT22;27217;51.220;5.308;2023-04-01T10:54:31;9.60;99.90
41481;DHT22;27217;51.220;5.308;2023-04-01T11:26:33;9.70;99.90
41481;DHT22;27217;51.220;5.308;2023-04-01T11:32:24;9.80;99.90
41481;DHT22;27217;51.220;5.308;2023-04-01T11:43:37;10.00;99.90
41481;DHT22;27217;51.220;5.308;2023-04-01T11:46:46;9.70;99.90
41481;DHT22;27217;51.220;5.308;2023-04-01T11:52:55;10.00;99.90
41481;DHT22;27217;51.220;5.308;2023-04-01T12:16:09;10.70;99.90
41481;DHT22;27217;51.220;5.308;2023-04-01T12:19:23;10.70;99.90
41481;DHT22;27217;51.220;5.308;2023-04-01T12:28:29;10.50;99.90
41481;DHT22;27217;51.220;5.308;2023-04-01T12:31:53;10.50;99.90
41481;DHT22;27217;51.220;5.308;2023-04-01T12:46:24;10.00;99.90
41481;DHT22;27217;51.220;5.308;2023-04-01T13:03:48;10.10;99.90
41481;DHT22;27217;51.220;5.308;2023-04-01T13:06:56;10.10;99.90
41481;DHT22;27217;51.220;5.308;2023-04-01T13:27:25;9.80;99.90
41481;DHT22;27217;51.220;5.308;2023-04-01T13:33:20;10.00;99.90
41481;DHT22;27217;51.220;5.308;2023-04-01T13:36:30;10.00;99.90
41481;DHT22;27217;51.220;5.308;2023-04-01T13:39:15;10.10;99.90
41481;DHT22;27217;51.220;5.308;2023-04-01T13:42:40;10.00;99.90
41481;DHT22;27217;51.220;5.308;2023-04-01T13:48:29;10.10;99.90
41481;DHT22;27217;51.220;5.308;2023-04-01T13:51:52;10.10;99.90
41481;DHT22;27217;51.220;5.308;2023-04-01T13:57:48;10.20;99.90
41481;DHT22;27217;51.220;5.308;2023-04-01T14:00:42;10.00;99.90
41481;DHT22;27217;51.220;5.308;2023-04-01T14:03:49;10.10;99.90
41481;DHT22;27217;51.220;5.308;2023-04-01T14:06:44;10.10;99.90
41481;DHT22;27217;51.220;5.308;2023-04-01T14:21:17;10.30;99.90
41481;DHT22;27217;51.220;5.308;2023-04-01T14:24:32;10.40;99.90
41481;DHT22;27217;51.220;5.308;2023-04-01T14:29:55;10.30;99.90
41481;DHT22;27217;51.220;5.308;2023-04-01T14:39:26;10.00;99.90
41481;DHT22;27217;51.220;5.308;2023-04-01T14:51:09;9.90;99.90
41481;DHT22;27217;51.220;5.308;2023-04-01T14:54:35;9.90;99.90
41481;DHT22;27217;51.220;5.308;2023-04-01T14:57:34;10.20;99.90
41481;DHT22;27217;51.220;5.308;2023-04-01T15:00:47;10.10;99.90
41481;DHT22;27217;51.220;5.308;2023-04-01T15:09:22;10.00;99.90
41481;DHT22;27217;51.220;5.308;2023-04-01T15:12:30;9.90;99.90
41481;DHT22;27217;51.220;5.308;2023-04-01T15:15:38;10.10;99.90
41481;DHT22;27217;51.220;5.308;2023-04-01T15:18:30;10.00;99.90
41481;DHT22;27217;51.220;5.308;2023-04-01T15:24:26;9.90;99.90
41481;DHT22;27217;51.220;5.308;2023-04-01T15:44:54;9.70;99.90
41481;DHT22;27217;51.220;5.308;2023-04-01T15:51:24;9.70;99.90
41481;DHT22;27217;51.220;5.308;2023-04-01T15:57:23;9.80;99.90
41481;DHT22;27217;51.220;5.308;2023-04-01T16:06:21;9.40;99.90
41481;DHT22;27217;51.220;5.308;2023-04-01T16:09:37;9.40;99.90
41481;DHT22;27217;51.220;5.308;2023-04-01T16:18:31;9.70;99.90
41481;DHT22;27217;51.220;5.308;2023-04-01T16:23:59;9.70;99.90
41481;DHT22;27217;51.220;5.308;2023-04-01T16:29:48;9.50;99.90
41481;DHT22;27217;51.220;5.308;2023-04-01T16:32:44;9.30;99.90
41481;DHT22;27217;51.220;5.308;2023-04-01T16:35:40;9.40;99.90
41481;DHT22;27217;51.220;5.308;2023-04-01T16:38:31;9.30;99.90
41481;DHT22;27217;51.220;5.308;2023-04-01T16:41:40;9.20;99.90
41481;DHT22;27217;51.220;5.308;2023-04-01T16:44:57;9.40;99.90
41481;DHT22;27217;51.220;5.308;2023-04-01T16:48:10;9.60;99.90
41481;DHT22;27217;51.220;5.308;2023-04-01T16:51:12;9.50;99.90
41481;DHT22;27217;51.220;5.308;2023-04-01T17:12:28;9.30;99.90
41481;DHT22;27217;51.220;5.308;2023-04-01T17:15:17;9.20;99.90
41481;DHT22;27217;51.220;5.308;2023-04-01T17:21:10;9.50;99.90
41481;DHT22;27217;51.220;5.308;2023-04-01T17:24:26;9.20;99.90
41481;DHT22;27217;51.220;5.308;2023-04-01T17:30:35;9.50;99.90
41481;DHT22;27217;51.220;5.308;2023-04-01T17:33:56;9.40;99.90
41481;DHT22;27217;51.220;5.308;2023-04-01T17:39:43;9.30;99.90
41481;DHT22;27217;51.220;5.308;2023-04-01T17:53:40;9.50;99.90
41481;DHT22;27217;51.220;5.308;2023-04-01T17:56:47;9.50;99.90
41481;DHT22;27217;51.220;5.308;2023-04-01T18:05:18;9.30;99.90
41481;DHT22;27217;51.220;5.308;2023-04-01T18:08:09;9.50;99.90
41481;DHT22;27217;51.220;5.308;2023-04-01T18:11:00;9.40;99.90
41481;DHT22;27217;51.220;5.308;2023-04-01T18:13:50;9.50;99.90
41481;DHT22;27217;51.220;5.308;2023-04-01T18:22:33;9.30;99.90
41481;DHT22;27217;51.220;5.308;2023-04-01T18:25:39;9.40;99.90
41481;DHT22;27217;51.220;5.308;2023-04-01T18:29:11;9.60;99.90
41481;DHT22;27217;51.220;5.308;2023-04-01T18:38:04;9.50;99.90
41481;DHT22;27217;51.220;5.308;2023-04-01T18:46:52;9.40;99.90
41481;DHT22;27217;51.220;5.308;2023-04-01T18:50:02;9.30;99.90
41481;DHT22;27217;51.220;5.308;2023-04-01T18:56:31;9.50;99.90
41481;DHT22;27217;51.220;5.308;2023-04-01T18:59:50;9.80;99.90
41481;DHT22;27217;51.220;5.308;2023-04-01T19:02:41;9.80;99.90
41481;DHT22;27217;51.220;5.308;2023-04-01T19:05:33;10.00;99.90
41481;DHT22;27217;51.220;5.308;2023-04-01T19:08:47;10.20;99.90
41481;DHT22;27217;51.220;5.308;2023-04-01T19:14:42;10.10;99.90
41481;DHT22;27217;51.220;5.308;2023-04-01T19:25:49;10.80;99.90
41481;DHT22;27217;51.220;5.308;2023-04-01T19:28:54;10.80;99.90
41481;DHT22;27217;51.220;5.308;2023-04-01T19:32:08;10.70;99.90
41481;DHT22;27217;51.220;5.308;2023-04-01T19:34:47;10.70;99.90
41481;DHT22;27217;51.220;5.308;2023-04-01T19:38:03;10.60;99.90
41481;DHT22;27217;51.220;5.308;2023-04-01T19:41:19;10.50;99.90
41481;DHT22;27217;51.220;5.308;2023-04-01T19:49:57;10.20;99.90
41481;DHT22;27217;51.220;5.308;2023-04-01T19:52:58;10.10;99.90
41481;DHT22;27217;51.220;5.308;2023-04-01T19:58:58;10.00;99.90
41481;DHT22;27217;51.220;5.308;2023-04-01T20:01:49;10.10;99.90
41481;DHT22;27217;51.220;5.308;2023-04-01T20:08:10;10.10;99.90
41481;DHT22;27217;51.220;5.308;2023-04-01T20:11:35;10.10;99.90
41481;DHT22;27217;51.220;5.308;2023-04-01T20:20:24;10.00;99.90
41481;DHT22;27217;51.220;5.308;2023-04-01T20:26:30;9.50;99.90
41481;DHT22;27217;51.220;5.308;2023-04-01T20:29:15;10.00;99.90
41481;DHT22;27217;51.220;5.308;2023-04-01T20:38:30;10.00;99.90
41481;DHT22;27217;51.220;5.308;2023-04-01T20:48:11;10.00;99.90
41481;DHT22;27217;51.220;5.308;2023-04-01T20:51:26;10.00;99.90
41481;DHT22;27217;51.220;5.308;2023-04-01T20:57:22;9.80;99.90
41481;DHT22;27217;51.220;5.308;2023-04-01T21:00:16;9.60;99.90
41481;DHT22;27217;51.220;5.308;2023-04-01T21:09:30;9.50;99.90
41481;DHT22;27217;51.220;5.308;2023-04-01T21:20:49;9.50;99.90
41481;DHT22;27217;51.220;5.308;2023-04-01T21:30:07;9.40;99.90
41481;DHT22;27217;51.220;5.308;2023-04-01T21:33:19;9.40;99.90
41481;DHT22;27217;51.220;5.308;2023-04-01T21:42:09;9.30;99.90
41481;DHT22;27217;51.220;5.308;2023-04-01T21:53:56;9.30;99.90
41481;DHT22;27217;51.220;5.308;2023-04-01T22:04:41;9.10;99.90
41481;DHT22;27217;51.220;5.308;2023-04-01T22:08:06;9.10;99.90
41481;DHT22;27217;51.220;5.308;2023-04-01T22:11:23;9.00;99.90
41481;DHT22;27217;51.220;5.308;2023-04-01T22:17:22;8.80;99.90
41481;DHT22;27217;51.220;5.308;2023-04-01T22:20:33;8.80;99.90
41481;DHT22;27217;51.220;5.308;2023-04-01T22:23:27;8.90;99.90
41481;DHT22;27217;51.220;5.308;2023-04-01T22:26:25;8.90;99.90
41481;DHT22;27217;51.220;5.308;2023-04-01T22:29:45;8.80;99.90
41481;DHT22;27217;51.220;5.308;2023-04-01T22:38:54;8.70;99.90
41481;DHT22;27217;51.220;5.308;2023-04-01T22:48:05;8.60;99.90
41481;DHT22;27217;51.220;5.308;2023-04-01T22:50:54;8.50;99.90
41481;DHT22;27217;51.220;5.308;2023-04-01T22:54:05;8.50;99.90
41481;DHT22;27217;51.220;5.308;2023-04-01T22:56:56;8.50;99.90
41481;DHT22;27217;51.220;5.308;2023-04-01T23:03:13;8.50;99.90
41481;DHT22;27217;51.220;5.308;2023-04-01T23:06:18;8.50;99.90
41481;DHT22;27217;51.220;5.308;2023-04-01T23:09:23;8.40;99.90
41481;DHT22;27217;51.220;5.308;2023-04-01T23:12:27;8.30;99.90
41481;DHT22;27217;51.220;5.308;2023-04-01T23:15:33;8.30;99.90
41481;DHT22;27217;51.220;5.308;2023-04-01T23:18:52;8.30;99.90
41481;DHT22;27217;51.220;5.308;2023-04-01T23:28:14;8.40;99.90
41481;DHT22;27217;51.220;5.308;2023-04-01T23:37:18;8.00;99.90
41481;DHT22;27217;51.220;5.308;2023-04-01T23:40:12;7.90;99.90
41481;DHT22;27217;51.220;5.308;2023-04-01T23:43:22;7.90;99.90
41481;DHT22;27217;51.220;5.308;2023-04-01T23:46:23;7.90;99.90
41481;DHT22;27217;51.220;5.308;2023-04-01T23:49:51;7.90;99.90
41481;DHT22;27217;51.220;5.308;2023-04-01T23:53:00;7.90;99.90
41481;DHT22;27217;51.220;5.308;2023-04-01T23:56:04;7.90;99.90
41481;DHT22;27217;51.220;5.308;2023-04-01T23:59:23;7.80;99.90
